Time;durP1;ratioP1;P1;durP2;ratioP2;P2;SDS_P1;SDS_P2;PMS_P1;PMS_P2;Temp;Humidity;BMP_temperature;BMP_pressure;BME280_temperature;BME280_humidity;BME280_pressure;Samples;Min_cycle;Max_cycle;Signal;HPM_P1;HPM_P2
2022/07/25 00:01:38;;;;;;;;;;;27.60;51.60;;;;;;5023625;28;87403;-37
2022/07/25 00:04:04;;;;;;;;;;;27.60;51.70;;;;;;5023058;28;88047;-37
2022/07/25 00:06:29;;;;;;;;;;;27.60;51.70;;;;;;5026728;28;86528;-36
2022/07/25 00:08:55;;;;;;;;;;;27.60;51.80;;;;;;5022872;28;88142;-37
2022/07/25 00:11:20;;;;;;;;;;;27.60;51.80;;;;;;5022900;28;87256;-37
2022/07/25 00:13:46;;;;;;;;;;;27.50;51.70;;;;;;5022772;28;88015;-37
2022/07/25 00:16:12;;;;;;;;;;;27.50;51.80;;;;;;5021361;28;91401;-37
2022/07/25 00:18:37;;;;;;;;;;;27.50;51.80;;;;;;5023288;28;87004;-36
2022/07/25 00:21:03;;;;;;;;;;;27.50;51.90;;;;;;5023284;28;87026;-37
2022/07/25 00:23:28;;;;;;;;;;;27.50;51.90;;;;;;5022691;28;88125;-37
2022/07/25 00:25:54;;;;;;;;;;;27.50;51.90;;;;;;5022887;28;87158;-36
2022/07/25 00:28:20;;;;;;;;;;;27.50;52.00;;;;;;5025744;28;87367;-37
2022/07/25 00:30:45;;;;;;;;;;;27.40;51.90;;;;;;5023201;28;86445;-36
2022/07/25 00:33:11;;;;;;;;;;;27.50;52.00;;;;;;5023022;28;87106;-37
2022/07/25 00:35:36;;;;;;;;;;;27.40;52.00;;;;;;5022583;28;88006;-36
2022/07/25 00:38:02;;;;;;;;;;;27.40;52.00;;;;;;5022139;28;88161;-37
2022/07/25 00:40:27;;;;;;;;;;;27.50;52.10;;;;;;5022732;28;88284;-37
2022/07/25 00:42:53;;;;;;;;;;;27.40;52.10;;;;;;5022692;28;88007;-37
2022/07/25 00:45:18;;;;;;;;;;;27.40;52.10;;;;;;5022648;28;87141;-37
2022/07/25 00:47:44;;;;;;;;;;;27.40;52.10;;;;;;5025803;28;88566;-36
2022/07/25 00:50:10;;;;;;;;;;;27.40;52.20;;;;;;5022802;28;87203;-37
2022/07/25 00:52:35;;;;;;;;;;;27.40;52.30;;;;;;5022404;28;87045;-37
2022/07/25 00:55:01;;;;;;;;;;;27.30;52.20;;;;;;5022625;28;87331;-37
2022/07/25 00:57:26;;;;;;;;;;;27.40;52.20;;;;;;5022405;28;86903;-37
2022/07/25 00:59:52;;;;;;;;;;;27.30;52.30;;;;;;5022701;28;87045;-37
2022/07/25 01:02:17;;;;;;;;;;;27.30;52.30;;;;;;5021634;28;88209;-37
2022/07/25 01:04:43;;;;;;;;;;;27.30;52.30;;;;;;5022609;28;87137;-36
2022/07/25 01:07:08;;;;;;;;;;;27.30;52.30;;;;;;5022639;28;86951;-37
2022/07/25 01:09:34;;;;;;;;;;;27.30;52.30;;;;;;5025222;28;88183;-37
2022/07/25 01:12:00;;;;;;;;;;;27.30;52.40;;;;;;5022215;28;88063;-37
2022/07/25 01:14:25;;;;;;;;;;;27.30;52.40;;;;;;5022152;28;88334;-36
2022/07/25 01:16:51;;;;;;;;;;;27.30;52.50;;;;;;5022736;28;87134;-37
2022/07/25 01:19:16;;;;;;;;;;;27.20;52.40;;;;;;5023201;28;87469;-36
2022/07/25 01:21:42;;;;;;;;;;;27.20;52.50;;;;;;5022361;28;87256;-36
2022/07/25 01:24:08;;;;;;;;;;;27.20;52.50;;;;;;5022439;28;87157;-37
2022/07/25 01:26:33;;;;;;;;;;;27.20;52.60;;;;;;5021701;28;88018;-36
2022/07/25 01:28:59;;;;;;;;;;;27.20;52.60;;;;;;5022166;28;88032;-36
2022/07/25 01:31:25;;;;;;;;;;;27.20;52.50;;;;;;5025178;28;87121;-37
2022/07/25 01:33:50;;;;;;;;;;;27.20;52.60;;;;;;5022191;28;88005;-37
2022/07/25 01:36:16;;;;;;;;;;;27.20;52.70;;;;;;5022298;28;86968;-37
2022/07/25 01:38:41;;;;;;;;;;;27.20;52.70;;;;;;5022340;28;86981;-36
2022/07/25 01:41:07;;;;;;;;;;;27.10;52.70;;;;;;5021853;28;88200;-36
2022/07/25 01:43:33;;;;;;;;;;;27.10;52.70;;;;;;5022563;28;86360;-36
2022/07/25 01:45:58;;;;;;;;;;;27.10;52.70;;;;;;5021875;28;87035;-36
2022/07/25 01:48:24;;;;;;;;;;;27.10;52.80;;;;;;5021460;28;89461;-37
2022/07/25 01:50:49;;;;;;;;;;;27.10;52.70;;;;;;5021647;28;88059;-37
2022/07/25 01:53:15;;;;;;;;;;;27.00;52.80;;;;;;5024946;28;88347;-37
2022/07/25 01:55:40;;;;;;;;;;;27.00;52.80;;;;;;5022121;28;87238;-36
2022/07/25 01:58:06;;;;;;;;;;;27.00;52.80;;;;;;5022022;28;87870;-37
2022/07/25 02:00:31;;;;;;;;;;;27.00;52.80;;;;;;5021833;28;88294;-37
2022/07/25 02:05:41;;;;;;;;;;;27.00;52.90;;;;;;5025657;28;86973;-36
2022/07/25 02:08:06;;;;;;;;;;;26.90;52.80;;;;;;5025790;28;86255;-36
2022/07/25 02:10:32;;;;;;;;;;;26.90;52.90;;;;;;5025228;28;87113;-36
2022/07/25 02:12:59;;;;;;;;;;;26.90;52.90;;;;;;5025676;28;87624;-36
2022/07/25 02:15:24;;;;;;;;;;;26.90;52.90;;;;;;5027178;28;88887;-37
2022/07/25 02:17:50;;;;;;;;;;;26.90;52.90;;;;;;5025404;28;88228;-37
2022/07/25 02:20:15;;;;;;;;;;;26.80;52.90;;;;;;5025194;28;87275;-37
2022/07/25 02:22:41;;;;;;;;;;;26.90;53.00;;;;;;5025349;28;87165;-36
2022/07/25 02:25:06;;;;;;;;;;;26.80;52.90;;;;;;5024999;28;88262;-36
2022/07/25 02:27:32;;;;;;;;;;;26.80;52.90;;;;;;5024578;28;88832;-37
2022/07/25 02:29:58;;;;;;;;;;;26.80;53.00;;;;;;5025318;28;87185;-36
2022/07/25 02:32:23;;;;;;;;;;;26.80;53.00;;;;;;5025392;28;88935;-36
2022/07/25 02:34:49;;;;;;;;;;;26.80;53.00;;;;;;5024989;28;87196;-36
2022/07/25 02:37:14;;;;;;;;;;;26.80;53.00;;;;;;5028062;28;86998;-36
2022/07/25 02:39:40;;;;;;;;;;;26.80;53.00;;;;;;5023724;28;88905;-37
2022/07/25 02:42:06;;;;;;;;;;;26.70;53.00;;;;;;5024855;28;87044;-36
2022/07/25 02:44:31;;;;;;;;;;;26.80;53.10;;;;;;5024720;28;88785;-37
2022/07/25 02:46:57;;;;;;;;;;;26.70;53.00;;;;;;5024273;28;88100;-37
2022/07/25 02:49:22;;;;;;;;;;;26.70;53.10;;;;;;5024983;28;87119;-36
2022/07/25 02:51:48;;;;;;;;;;;26.70;53.00;;;;;;5025182;28;87440;-37
2022/07/25 02:54:13;;;;;;;;;;;26.70;53.10;;;;;;5024618;28;88077;-36
2022/07/25 02:56:39;;;;;;;;;;;26.70;53.20;;;;;;5027712;28;87268;-36
2022/07/25 02:59:04;;;;;;;;;;;26.70;53.10;;;;;;5024491;28;88059;-36
2022/07/25 03:01:30;;;;;;;;;;;26.60;53.10;;;;;;5024881;28;87060;-36
2022/07/25 03:03:55;;;;;;;;;;;26.70;53.10;;;;;;5022476;28;89165;-37
2022/07/25 03:06:21;;;;;;;;;;;26.60;53.10;;;;;;5024519;28;87764;-37
2022/07/25 03:08:46;;;;;;;;;;;26.60;53.10;;;;;;5024606;28;87166;-36
2022/07/25 03:11:12;;;;;;;;;;;26.60;53.10;;;;;;5024485;28;87435;-37
2022/07/25 03:13:37;;;;;;;;;;;26.60;53.20;;;;;;5024369;28;88034;-36
2022/07/25 03:16:03;;;;;;;;;;;26.50;53.10;;;;;;5023885;28;87166;-36
2022/07/25 03:18:29;;;;;;;;;;;26.50;53.10;;;;;;5027231;28;87419;-36
2022/07/25 03:20:54;;;;;;;;;;;26.50;53.10;;;;;;5024949;28;86387;-36
2022/07/25 03:23:20;;;;;;;;;;;26.50;53.20;;;;;;5024361;28;87339;-37
2022/07/25 03:25:45;;;;;;;;;;;26.50;53.20;;;;;;5023599;28;89788;-37
2022/07/25 03:28:11;;;;;;;;;;;26.50;53.10;;;;;;5023803;28;88006;-36
2022/07/25 03:30:36;;;;;;;;;;;26.50;53.20;;;;;;5024351;28;88561;-36
2022/07/25 03:33:02;;;;;;;;;;;26.50;53.20;;;;;;5024072;28;88591;-37
2022/07/25 03:35:27;;;;;;;;;;;26.40;53.20;;;;;;5024119;28;87136;-36
2022/07/25 03:37:53;;;;;;;;;;;26.40;53.20;;;;;;5024343;28;87474;-36
2022/07/25 03:40:18;;;;;;;;;;;26.40;53.20;;;;;;5026709;28;88008;-36
2022/07/25 03:42:44;;;;;;;;;;;26.40;53.20;;;;;;5024029;28;87400;-36
2022/07/25 03:45:09;;;;;;;;;;;26.40;53.20;;;;;;5024177;28;87393;-36
2022/07/25 03:47:35;;;;;;;;;;;26.40;53.30;;;;;;5023761;28;87360;-37
2022/07/25 03:50:00;;;;;;;;;;;26.40;53.30;;;;;;5024072;28;87510;-36
2022/07/25 03:52:26;;;;;;;;;;;26.30;53.20;;;;;;5022848;28;89541;-36
2022/07/25 03:54:52;;;;;;;;;;;26.30;53.20;;;;;;5023938;28;87182;-37
2022/07/25 03:57:17;;;;;;;;;;;26.30;53.20;;;;;;5023759;28;87218;-36
2022/07/25 03:59:43;;;;;;;;;;;26.30;53.30;;;;;;5023415;28;87399;-37
2022/07/25 04:02:08;;;;;;;;;;;26.30;53.30;;;;;;5026857;28;87094;-36
2022/07/25 04:04:34;;;;;;;;;;;26.30;53.20;;;;;;5023371;28;88109;-36
2022/07/25 04:06:59;;;;;;;;;;;26.20;53.20;;;;;;5023884;28;87179;-36
2022/07/25 04:09:25;;;;;;;;;;;26.20;53.20;;;;;;5024216;28;87461;-36
2022/07/25 04:11:50;;;;;;;;;;;26.20;53.20;;;;;;5022946;28;87694;-36
2022/07/25 04:14:16;;;;;;;;;;;26.20;53.30;;;;;;5023660;28;87008;-36
2022/07/25 04:16:41;;;;;;;;;;;26.20;53.30;;;;;;5022862;28;88092;-36
2022/07/25 04:19:07;;;;;;;;;;;26.20;53.40;;;;;;5022994;28;89550;-36
2022/07/25 04:21:32;;;;;;;;;;;26.20;53.40;;;;;;5023256;28;87717;-37
2022/07/25 04:23:58;;;;;;;;;;;26.20;53.40;;;;;;5026078;28;87496;-37
2022/07/25 04:26:24;;;;;;;;;;;26.20;53.40;;;;;;5022427;28;87135;-36
2022/07/25 04:28:49;;;;;;;;;;;26.10;53.30;;;;;;5023459;28;86956;-36
2022/07/25 04:31:15;;;;;;;;;;;26.10;53.40;;;;;;5023041;28;88263;-36
2022/07/25 04:33:41;;;;;;;;;;;26.10;53.40;;;;;;5023741;28;86383;-36
2022/07/25 04:36:06;;;;;;;;;;;26.10;53.40;;;;;;5023231;28;87058;-36
2022/07/25 04:38:32;;;;;;;;;;;26.10;53.40;;;;;;5022969;28;87809;-36
2022/07/25 04:40:58;;;;;;;;;;;26.10;53.50;;;;;;5022411;28;87969;-37
2022/07/25 04:43:23;;;;;;;;;;;26.00;53.40;;;;;;5025850;28;87591;-36
2022/07/25 04:45:49;;;;;;;;;;;26.00;53.40;;;;;;5022348;28;87117;-36
2022/07/25 04:48:14;;;;;;;;;;;26.00;53.40;;;;;;5023315;28;87942;-36
2022/07/25 04:50:40;;;;;;;;;;;26.00;53.50;;;;;;5022777;28;88070;-36
2022/07/25 04:53:05;;;;;;;;;;;26.00;53.50;;;;;;5022946;28;87117;-36
2022/07/25 04:55:31;;;;;;;;;;;26.00;53.50;;;;;;5022930;28;87169;-36
2022/07/25 04:57:57;;;;;;;;;;;26.00;53.50;;;;;;5023160;28;86454;-36
2022/07/25 05:00:23;;;;;;;;;;;26.00;53.50;;;;;;5022873;28;87111;-36
2022/07/25 05:02:48;;;;;;;;;;;26.00;53.50;;;;;;5022813;28;87444;-37
2022/07/25 05:05:14;;;;;;;;;;;26.00;53.50;;;;;;5024599;28;89144;-36
2022/07/25 05:07:39;;;;;;;;;;;26.00;53.60;;;;;;5022732;28;88392;-36
2022/07/25 05:10:05;;;;;;;;;;;26.00;53.60;;;;;;5022516;28;87949;-36
2022/07/25 05:12:30;;;;;;;;;;;26.00;53.60;;;;;;5022429;28;87110;-37
2022/07/25 05:14:56;;;;;;;;;;;26.00;53.60;;;;;;5022847;28;87644;-36
2022/07/25 05:17:22;;;;;;;;;;;25.90;53.60;;;;;;5022257;28;88040;-36
2022/07/25 05:19:47;;;;;;;;;;;25.90;53.60;;;;;;5022662;28;87063;-37
2022/07/25 05:22:13;;;;;;;;;;;26.00;53.70;;;;;;5023050;28;87533;-36
2022/07/25 05:24:38;;;;;;;;;;;25.90;53.60;;;;;;5022218;28;88193;-36
2022/07/25 05:27:04;;;;;;;;;;;26.00;53.70;;;;;;5025167;28;87207;-36
2022/07/25 05:29:30;;;;;;;;;;;25.90;53.60;;;;;;5021658;28;88918;-36
2022/07/25 05:31:55;;;;;;;;;;;26.00;53.70;;;;;;5022316;28;87134;-36
2022/07/25 05:34:21;;;;;;;;;;;25.90;53.70;;;;;;5022397;28;87410;-36
2022/07/25 05:36:46;;;;;;;;;;;25.90;53.70;;;;;;5021834;28;88026;-37
2022/07/25 05:39:12;;;;;;;;;;;25.90;53.70;;;;;;5025235;28;87229;-36
2022/07/25 05:41:37;;;;;;;;;;;25.90;53.70;;;;;;5025800;28;86992;-36
2022/07/25 05:44:03;;;;;;;;;;;25.90;53.70;;;;;;5025807;28;87231;-37
2022/07/25 05:46:30;;;;;;;;;;;25.90;53.80;;;;;;5025974;28;86562;-36
2022/07/25 05:48:56;;;;;;;;;;;25.90;53.80;;;;;;5028309;28;87724;-36
2022/07/25 05:51:21;;;;;;;;;;;25.90;53.80;;;;;;5025764;28;87094;-36
2022/07/25 05:53:47;;;;;;;;;;;25.90;53.80;;;;;;5025251;28;88469;-36
2022/07/25 05:56:12;;;;;;;;;;;26.00;54.00;;;;;;5025078;28;88173;-36
2022/07/25 05:58:39;;;;;;;;;;;25.90;54.00;;;;;;5025722;28;87139;-36
2022/07/25 06:01:06;;;;;;;;;;;25.90;54.00;;;;;;5025432;28;88804;-36
2022/07/25 06:03:33;;;;;;;;;;;25.90;53.90;;;;;;5025262;28;88770;-36
2022/07/25 06:05:58;;;;;;;;;;;25.90;54.00;;;;;;5025675;28;87022;-36
2022/07/25 06:08:27;;;;;;;;;;;25.90;54.00;;;;;;5025630;28;87350;-36
2022/07/25 06:10:53;;;;;;;;;;;25.90;54.00;;;;;;5028139;28;86420;-36
2022/07/25 06:13:18;;;;;;;;;;;25.90;54.00;;;;;;5023904;28;88370;-36
2022/07/25 06:15:44;;;;;;;;;;;25.90;54.00;;;;;;5025118;28;88046;-36
2022/07/25 06:18:09;;;;;;;;;;;25.80;53.90;;;;;;5024749;28;88050;-36
2022/07/25 06:20:35;;;;;;;;;;;25.80;54.00;;;;;;5025416;28;88953;-36
2022/07/25 06:23:02;;;;;;;;;;;25.80;54.00;;;;;;5025367;28;87802;-36
2022/07/25 06:25:27;;;;;;;;;;;25.80;53.90;;;;;;5024951;28;87165;-36
2022/07/25 06:27:53;;;;;;;;;;;25.80;54.00;;;;;;5025154;28;88952;-36
2022/07/25 06:30:18;;;;;;;;;;;25.90;54.20;;;;;;5024930;28;88079;-36
2022/07/25 06:32:44;;;;;;;;;;;25.80;54.10;;;;;;5028143;28;87262;-36
2022/07/25 06:35:09;;;;;;;;;;;25.80;54.10;;;;;;5025340;28;86637;-36
2022/07/25 06:37:38;;;;;;;;;;;25.80;54.10;;;;;;5025317;28;86947;-36
2022/07/25 06:40:04;;;;;;;;;;;25.80;54.10;;;;;;5025239;28;87288;-36
2022/07/25 06:42:30;;;;;;;;;;;25.80;54.10;;;;;;5024038;28;88752;-36
2022/07/25 06:44:55;;;;;;;;;;;25.80;54.30;;;;;;5024686;28;87075;-36
2022/07/25 06:47:21;;;;;;;;;;;25.80;54.20;;;;;;5024730;28;87503;-36
2022/07/25 06:49:46;;;;;;;;;;;25.80;54.20;;;;;;5023841;28;88153;-36
2022/07/25 06:52:12;;;;;;;;;;;25.80;54.10;;;;;;5027975;28;86871;-36
2022/07/25 06:54:38;;;;;;;;;;;25.90;54.20;;;;;;5024671;28;88021;-36
2022/07/25 06:57:03;;;;;;;;;;;25.80;54.10;;;;;;5024533;28;87310;-36
2022/07/25 06:59:29;;;;;;;;;;;25.80;54.20;;;;;;5025243;28;87441;-36
2022/07/25 07:01:54;;;;;;;;;;;25.80;54.20;;;;;;5024434;28;88436;-36
2022/07/25 07:04:20;;;;;;;;;;;25.80;54.20;;;;;;5024584;28;87126;-36
2022/07/25 07:06:45;;;;;;;;;;;25.90;54.40;;;;;;5024182;28;88045;-36
2022/07/25 07:09:11;;;;;;;;;;;25.80;54.40;;;;;;5024292;28;87964;-36
2022/07/25 07:11:37;;;;;;;;;;;25.80;54.40;;;;;;5024479;28;87123;-36
2022/07/25 07:14:02;;;;;;;;;;;25.80;54.40;;;;;;5027135;28;87445;-36
2022/07/25 07:16:29;;;;;;;;;;;25.80;54.40;;;;;;5024506;28;86955;-36
2022/07/25 07:18:54;;;;;;;;;;;25.90;54.20;;;;;;5024440;28;87446;-36
2022/07/25 07:21:20;;;;;;;;;;;25.90;54.40;;;;;;5024028;28;88105;-36
2022/07/25 07:23:46;;;;;;;;;;;25.90;54.40;;;;;;5024837;28;86378;-36
2022/07/25 07:26:11;;;;;;;;;;;25.90;54.30;;;;;;5024159;28;87046;-36
2022/07/25 07:28:37;;;;;;;;;;;25.90;54.50;;;;;;5024112;28;87873;-36
2022/07/25 07:31:03;;;;;;;;;;;25.90;54.40;;;;;;5023749;28;88205;-36
2022/07/25 07:33:28;;;;;;;;;;;25.90;54.40;;;;;;5023962;28;89660;-36
2022/07/25 07:35:55;;;;;;;;;;;25.90;54.40;;;;;;5026626;28;87986;-36
2022/07/25 07:38:22;;;;;;;;;;;25.90;54.50;;;;;;5024266;28;87645;-37
2022/07/25 07:40:47;;;;;;;;;;;25.80;54.50;;;;;;5023646;28;87986;-36
2022/07/25 07:43:13;;;;;;;;;;;25.90;54.30;;;;;;5023739;28;87181;-36
2022/07/25 07:45:38;;;;;;;;;;;25.90;54.40;;;;;;5023636;28;87490;-36
2022/07/25 07:48:05;;;;;;;;;;;25.90;54.50;;;;;;5024231;28;87165;-36
2022/07/25 07:50:30;;;;;;;;;;;25.90;54.40;;;;;;5023652;28;87141;-36
2022/07/25 07:52:57;;;;;;;;;;;25.90;54.30;;;;;;5023701;28;87507;-36
2022/07/25 07:58:07;;;;;;;;;;;25.90;54.40;;;;;;5026467;28;87067;-36
2022/07/25 08:00:35;;;;;;;;;;;25.90;54.50;;;;;;5022848;28;88064;-36
2022/07/25 08:03:01;;;;;;;;;;;26.00;54.50;;;;;;5022360;28;87115;-36
2022/07/25 08:05:31;;;;;;;;;;;26.00;54.40;;;;;;5023378;28;86964;-36
2022/07/25 08:07:57;;;;;;;;;;;26.00;54.30;;;;;;5022953;28;88016;-36
2022/07/25 08:10:23;;;;;;;;;;;26.00;54.30;;;;;;5023244;28;87049;-36
2022/07/25 08:12:49;;;;;;;;;;;26.00;54.20;;;;;;5023555;28;87566;-36
2022/07/25 08:15:16;;;;;;;;;;;26.00;54.20;;;;;;5022815;28;87959;-36
2022/07/25 08:17:42;;;;;;;;;;;25.90;54.20;;;;;;5023344;28;87103;-36
2022/07/25 08:20:08;;;;;;;;;;;25.90;54.20;;;;;;5024852;28;88620;-36
2022/07/25 08:22:34;;;;;;;;;;;26.00;54.20;;;;;;5022661;28;87054;-36
2022/07/25 08:25:00;;;;;;;;;;;26.00;54.10;;;;;;5023003;28;87520;-36
2022/07/25 08:27:25;;;;;;;;;;;26.00;54.10;;;;;;5022584;28;88031;-36
2022/07/25 08:29:51;;;;;;;;;;;25.90;54.10;;;;;;5022940;28;87150;-36
2022/07/25 08:32:17;;;;;;;;;;;26.00;54.10;;;;;;5022829;28;88932;-36
2022/07/25 08:34:42;;;;;;;;;;;26.00;54.10;;;;;;5022674;28;88157;-36
2022/07/25 08:37:08;;;;;;;;;;;26.00;54.10;;;;;;5023202;28;86471;-36
2022/07/25 08:39:33;;;;;;;;;;;26.00;54.00;;;;;;5022901;28;87034;-36
2022/07/25 08:42:00;;;;;;;;;;;26.00;54.00;;;;;;5025441;28;88263;-36
2022/07/25 08:44:27;;;;;;;;;;;26.00;54.10;;;;;;5022264;28;88100;-36
2022/07/25 08:46:52;;;;;;;;;;;26.00;53.90;;;;;;5021756;28;89467;-36
2022/07/25 08:49:18;;;;;;;;;;;26.00;53.80;;;;;;5022718;28;87102;-36
2022/07/25 08:51:44;;;;;;;;;;;26.00;53.70;;;;;;5022920;28;87873;-36
2022/07/25 08:54:10;;;;;;;;;;;26.10;53.70;;;;;;5022208;28;90186;-36
2022/07/25 08:56:35;;;;;;;;;;;26.10;53.70;;;;;;5022524;28;87098;-36
2022/07/25 08:59:01;;;;;;;;;;;26.00;53.60;;;;;;5022564;28;87475;-36
2022/07/25 09:01:28;;;;;;;;;;;26.00;53.50;;;;;;5025595;28;87364;-36
2022/07/25 09:03:53;;;;;;;;;;;26.00;53.50;;;;;;5022471;28;87014;-36
2022/07/25 09:06:20;;;;;;;;;;;26.10;53.60;;;;;;5022062;28;88632;-36
2022/07/25 09:08:49;;;;;;;;;;;26.00;53.40;;;;;;5021456;28;87945;-36
2022/07/25 09:11:24;;;;;;;;;;;26.00;53.10;;;;;;5021995;28;88388;-35
2022/07/25 09:13:56;;;;;;;;;;;26.00;53.30;;;;;;5021673;28;87754;-36
2022/07/25 09:16:27;;;;;;;;;;;26.00;53.30;;;;;;5022233;28;87013;-36
2022/07/25 09:18:53;;;;;;;;;;;26.00;53.40;;;;;;5022533;28;87612;-36
2022/07/25 09:21:18;;;;;;;;;;;26.00;53.30;;;;;;5021631;28;88414;-36
2022/07/25 09:23:44;;;;;;;;;;;26.00;53.30;;;;;;5025354;28;87214;-36
2022/07/25 09:26:10;;;;;;;;;;;26.10;53.30;;;;;;5022432;28;86373;-36
2022/07/25 09:28:43;;;;;;;;;;;26.10;53.20;;;;;;5022126;28;87090;-36
2022/07/25 09:31:09;;;;;;;;;;;26.10;53.10;;;;;;5022477;28;87184;-35
2022/07/25 09:33:43;;;;;;;;;;;26.10;53.10;;;;;;5020911;28;88607;-36
2022/07/25 09:36:09;;;;;;;;;;;26.10;53.10;;;;;;5022101;28;87023;-36
2022/07/25 09:38:35;;;;;;;;;;;26.20;52.90;;;;;;5021997;28;87460;-36
2022/07/25 09:41:01;;;;;;;;;;;26.20;52.80;;;;;;5021822;28;87024;-36
2022/07/25 09:43:36;;;;;;;;;;;26.20;52.60;;;;;;5021727;28;87134;-36
2022/07/25 09:46:01;;;;;;;;;;;26.20;52.70;;;;;;5024241;28;87528;-36
2022/07/25 09:48:27;;;;;;;;;;;26.20;52.40;;;;;;5021764;28;87094;-36
2022/07/25 09:50:53;;;;;;;;;;;26.20;52.50;;;;;;5022308;28;87293;-36
2022/07/25 09:53:19;;;;;;;;;;;26.20;52.40;;;;;;5021373;28;89427;-36
2022/07/25 09:55:45;;;;;;;;;;;26.20;52.50;;;;;;5021997;28;87085;-36
2022/07/25 09:58:11;;;;;;;;;;;26.20;52.70;;;;;;5021394;28;87798;-36
2022/07/25 10:00:38;;;;;;;;;;;26.20;52.30;;;;;;5021394;28;88180;-36
2022/07/25 10:03:04;;;;;;;;;;;26.20;52.40;;;;;;5021563;28;87170;-36
2022/07/25 10:05:29;;;;;;;;;;;26.20;52.50;;;;;;5021753;28;87616;-36
2022/07/25 10:07:55;;;;;;;;;;;26.30;52.60;;;;;;5024303;28;88018;-36
2022/07/25 10:10:21;;;;;;;;;;;26.30;52.60;;;;;;5021503;28;89133;-36
2022/07/25 10:12:57;;;;;;;;;;;26.30;52.50;;;;;;5021306;28;87663;-36
2022/07/25 10:15:23;;;;;;;;;;;26.30;52.50;;;;;;5022069;28;86169;-36
2022/07/25 10:17:51;;;;;;;;;;;26.40;52.50;;;;;;5021441;28;87900;-36
2022/07/25 10:20:25;;;;;;;;;;;26.40;52.40;;;;;;5021000;28;89679;-35
2022/07/25 10:22:51;;;;;;;;;;;26.40;52.40;;;;;;5021077;28;87896;-36
2022/07/25 10:25:18;;;;;;;;;;;26.40;52.50;;;;;;5023251;28;88358;-36
2022/07/25 10:27:47;;;;;;;;;;;26.30;52.30;;;;;;5024576;28;88484;-36
2022/07/25 10:30:19;;;;;;;;;;;26.40;52.20;;;;;;5027311;28;87073;-36
2022/07/25 10:32:48;;;;;;;;;;;26.40;52.10;;;;;;5024177;28;89825;-36
2022/07/25 10:35:17;;;;;;;;;;;26.40;52.10;;;;;;5024831;28;87127;-36
2022/07/25 10:37:43;;;;;;;;;;;26.40;52.30;;;;;;5025059;28;87285;-36
2022/07/25 10:40:09;;;;;;;;;;;26.50;52.30;;;;;;5025036;28;87264;-36
2022/07/25 10:42:35;;;;;;;;;;;26.50;52.30;;;;;;5024342;28;87131;-36
2022/07/25 10:45:00;;;;;;;;;;;26.50;52.10;;;;;;5024605;28;88937;-36
2022/07/25 10:47:26;;;;;;;;;;;26.50;52.00;;;;;;5023767;28;89016;-36
2022/07/25 10:50:00;;;;;;;;;;;26.50;52.10;;;;;;5024448;28;86997;-35
2022/07/25 10:52:26;;;;;;;;;;;26.60;52.10;;;;;;5027193;28;89933;-36
2022/07/25 10:54:53;;;;;;;;;;;26.60;52.10;;;;;;5024716;28;87251;-36
2022/07/25 10:57:19;;;;;;;;;;;26.60;51.80;;;;;;5024527;28;87276;-36
2022/07/25 10:59:45;;;;;;;;;;;26.60;51.90;;;;;;5024063;28;88066;-36
2022/07/25 11:02:17;;;;;;;;;;;26.60;51.90;;;;;;5024333;28;87206;-36
2022/07/25 11:04:57;;;;;;;;;;;26.70;52.00;;;;;;5024718;28;88858;-36
2022/07/25 11:07:23;;;;;;;;;;;26.70;51.90;;;;;;5024218;28;88041;-36
2022/07/25 11:09:55;;;;;;;;;;;26.70;51.90;;;;;;5024193;28;87111;-36
2022/07/25 11:12:20;;;;;;;;;;;26.70;51.90;;;;;;5026235;28;87809;-36
2022/07/25 11:14:46;;;;;;;;;;;26.70;52.10;;;;;;5024165;28;87175;-36
2022/07/25 11:17:18;;;;;;;;;;;26.70;52.00;;;;;;5024545;28;87310;-36
2022/07/25 11:19:52;;;;;;;;;;;26.70;52.00;;;;;;5023725;28;89391;-35
2022/07/25 11:22:17;;;;;;;;;;;26.70;51.90;;;;;;5023831;28;87102;-36
2022/07/25 11:24:44;;;;;;;;;;;26.70;51.90;;;;;;5024065;28;87914;-36
2022/07/25 11:27:11;;;;;;;;;;;26.70;51.80;;;;;;5023786;28;88794;-36
2022/07/25 11:29:37;;;;;;;;;;;26.80;51.80;;;;;;5024075;28;86375;-36
2022/07/25 11:32:10;;;;;;;;;;;26.80;51.70;;;;;;5023806;28;88095;-36
2022/07/25 11:34:37;;;;;;;;;;;26.80;51.70;;;;;;5026196;28;87153;-36
2022/07/25 11:37:04;;;;;;;;;;;26.80;51.60;;;;;;5022843;28;88892;-36
2022/07/25 11:39:31;;;;;;;;;;;26.80;51.60;;;;;;5023704;28;88173;-36
2022/07/25 11:41:58;;;;;;;;;;;26.80;51.70;;;;;;5024184;28;87265;-36
2022/07/25 11:44:49;;;;;;;;;;;26.80;51.50;;;;;;5023826;28;87018;-36
2022/07/25 11:47:25;;;;;;;;;;;26.80;51.50;;;;;;5019532;28;88121;-36
2022/07/25 11:49:52;;;;;;;;;;;26.80;51.40;;;;;;5023636;28;87041;-36
2022/07/25 11:52:22;;;;;;;;;;;26.80;51.30;;;;;;5023496;28;89220;-36
2022/07/25 11:54:58;;;;;;;;;;;26.90;51.40;;;;;;5023559;28;87220;-35
2022/07/25 11:57:24;;;;;;;;;;;26.90;51.20;;;;;;5026199;28;87947;-36
2022/07/25 11:59:50;;;;;;;;;;;26.90;51.30;;;;;;5023156;28;87066;-35
2022/07/25 12:02:20;;;;;;;;;;;26.90;51.30;;;;;;5022827;28;87943;-36
2022/07/25 12:05:12;;;;;;;;;;;27.00;51.20;;;;;;5023473;28;88428;-36
2022/07/25 12:07:39;;;;;;;;;;;27.00;51.00;;;;;;5019700;28;89330;-36
2022/07/25 12:10:10;;;;;;;;;;;27.00;51.10;;;;;;5023074;28;87094;-39
2022/07/25 12:12:42;;;;;;;;;;;27.00;51.00;;;;;;5022126;28;87470;-36
2022/07/25 12:15:09;;;;;;;;;;;27.00;48.90;;;;;;5022867;28;88382;-34
2022/07/25 12:17:34;;;;;;;;;;;27.00;49.10;;;;;;5021562;28;87258;-34
2022/07/25 12:20:00;;;;;;;;;;;27.00;48.00;;;;;;5026190;28;87314;-36
2022/07/25 12:22:25;;;;;;;;;;;27.00;46.20;;;;;;5023114;28;88108;-34
2022/07/25 12:24:51;;;;;;;;;;;27.00;47.20;;;;;;5023159;28;87480;-34
2022/07/25 12:27:16;;;;;;;;;;;27.10;47.60;;;;;;5022076;28;89169;-45
2022/07/25 12:29:42;;;;;;;;;;;27.10;48.30;;;;;;5023065;28;87135;-35
2022/07/25 12:32:07;;;;;;;;;;;27.20;48.40;;;;;;5023092;28;87542;-37
2022/07/25 12:34:33;;;;;;;;;;;27.30;48.30;;;;;;5022691;28;88313;-37
2022/07/25 12:36:58;;;;;;;;;;;27.30;46.80;;;;;;5022866;28;86907;-41
2022/07/25 12:39:24;;;;;;;;;;;27.30;48.00;;;;;;5023004;28;87104;-38
2022/07/25 12:41:49;;;;;;;;;;;27.40;47.50;;;;;;5025329;28;87862;-35
2022/07/25 12:44:15;;;;;;;;;;;27.40;46.90;;;;;;5023082;28;87268;-37
2022/07/25 12:46:41;;;;;;;;;;;27.50;46.80;;;;;;5022135;28;88178;-37
2022/07/25 12:49:06;;;;;;;;;;;27.50;46.50;;;;;;5021925;28;87169;-37
2022/07/25 12:51:32;;;;;;;;;;;27.50;48.60;;;;;;5022182;28;87893;-36
2022/07/25 12:53:57;;;;;;;;;;;27.50;47.60;;;;;;5022410;28;88188;-36
2022/07/25 12:56:22;;;;;;;;;;;27.50;47.70;;;;;;5022489;28;87072;-35
2022/07/25 12:58:49;;;;;;;;;;;27.40;45.30;;;;;;5022394;28;86954;-35
2022/07/25 13:01:14;;;;;;;;;;;27.40;46.20;;;;;;5021923;28;89530;-35
2022/07/25 13:03:40;;;;;;;;;;;27.30;45.80;;;;;;5025067;28;86946;-37
2022/07/25 13:06:05;;;;;;;;;;;27.50;46.60;;;;;;5022204;28;88158;-36
2022/07/25 13:08:31;;;;;;;;;;;27.60;47.60;;;;;;5023190;28;86537;-36
2022/07/25 13:10:57;;;;;;;;;;;27.60;46.40;;;;;;5022592;28;87055;-37
2022/07/25 13:13:23;;;;;;;;;;;27.70;47.40;;;;;;5021503;28;88173;-36
2022/07/25 13:15:49;;;;;;;;;;;27.80;47.60;;;;;;5021276;28;88172;-34
2022/07/25 13:18:14;;;;;;;;;;;27.80;47.70;;;;;;5022336;28;88725;-36
2022/07/25 13:20:40;;;;;;;;;;;27.80;48.80;;;;;;5021894;28;88243;-39
2022/07/25 13:23:05;;;;;;;;;;;27.90;47.90;;;;;;5025215;28;87155;-36
2022/07/25 13:25:32;;;;;;;;;;;27.80;48.20;;;;;;5021948;28;88108;-37
2022/07/25 13:27:58;;;;;;;;;;;27.90;48.00;;;;;;5021849;28;87210;-35
2022/07/25 13:30:23;;;;;;;;;;;27.80;46.60;;;;;;5022457;28;87486;-34
2022/07/25 13:32:49;;;;;;;;;;;27.90;46.70;;;;;;5022165;28;87304;-34
2022/07/25 13:35:14;;;;;;;;;;;27.90;46.70;;;;;;5021970;28;87234;-36
2022/07/25 13:37:40;;;;;;;;;;;27.90;46.90;;;;;;5022091;28;87427;-38
2022/07/25 13:40:05;;;;;;;;;;;27.90;47.30;;;;;;5020993;28;88613;-35
2022/07/25 13:42:31;;;;;;;;;;;27.90;47.70;;;;;;5021761;28;87256;-34
2022/07/25 13:44:57;;;;;;;;;;;28.00;46.70;;;;;;5024334;28;88803;-35
2022/07/25 13:47:22;;;;;;;;;;;28.00;47.50;;;;;;5021372;28;87139;-34
2022/07/25 13:49:48;;;;;;;;;;;28.00;47.40;;;;;;5022126;28;87475;-36
2022/07/25 13:52:13;;;;;;;;;;;28.00;45.60;;;;;;5021526;28;88052;-40
2022/07/25 13:54:39;;;;;;;;;;;28.00;46.30;;;;;;5020357;28;87359;-36
2022/07/25 13:57:04;;;;;;;;;;;28.00;45.60;;;;;;5022327;28;87458;-37
2022/07/25 13:59:30;;;;;;;;;;;28.00;46.70;;;;;;5021926;28;88414;-36
2022/07/25 14:01:55;;;;;;;;;;;27.90;46.20;;;;;;5025528;28;87116;-35
2022/07/25 14:04:21;;;;;;;;;;;27.80;45.20;;;;;;5024572;28;87945;-37
2022/07/25 14:06:50;;;;;;;;;;;27.90;45.90;;;;;;5027911;28;88053;-34
2022/07/25 14:09:17;;;;;;;;;;;28.00;45.20;;;;;;5025114;28;88705;-34
2022/07/25 14:11:42;;;;;;;;;;;28.00;45.30;;;;;;5024589;28;89545;-35
2022/07/25 14:14:07;;;;;;;;;;;28.00;45.40;;;;;;5024986;28;87088;-34
2022/07/25 14:16:33;;;;;;;;;;;28.10;45.20;;;;;;5024970;28;87105;-34